Time;durP1;ratioP1;P1;durP2;ratioP2;P2;SDS_P1;SDS_P2;PMS_P1;PMS_P2;Temp;Humidity;BMP_temperature;BMP_pressure;BME280_temperature;BME280_humidity;BME280_pressure;Samples;Min_cycle;Max_cycle;Signal;HPM_P1;HPM_P2
2023/10/02 00:00:18;;;;;;;3.50;2.28;;;;;;;;;;6178330;28;20085;-70
2023/10/02 00:03:21;;;;;;;5.97;2.30;;;;;;;;;;6180332;28;20039;-70
2023/10/02 00:06:23;;;;;;;4.38;2.35;;;;;;;;;;6179091;28;20041;-70
2023/10/02 00:09:25;;;;;;;4.22;2.50;;;;;;;;;;6177811;28;20049;-70
2023/10/02 00:12:28;;;;;;;3.95;2.22;;;;;;;;;;6178415;28;20042;-70
2023/10/02 00:15:29;;;;;;;4.78;2.47;;;;;;;;;;6178280;28;20105;-70
2023/10/02 00:18:29;;;;;;;4.78;2.30;;;;;;;;;;6174831;28;20041;-70
2023/10/02 00:21:32;;;;;;;5.27;2.40;;;;;;;;;;6176815;28;20129;-70
2023/10/02 00:24:35;;;;;;;3.00;2.00;;;;;;;;;;6184070;28;20054;-70
2023/10/02 00:27:38;;;;;;;4.07;1.98;;;;;;;;;;6177444;28;20099;-69
2023/10/02 00:30:38;;;;;;;4.15;2.33;;;;;;;;;;6178175;28;20034;-69
2023/10/02 00:33:38;;;;;;;6.33;2.93;;;;;;;;;;6187228;28;20084;-69
2023/10/02 00:36:39;;;;;;;3.93;2.20;;;;;;;;;;6180700;28;20138;-70
2023/10/02 00:39:40;;;;;;;4.47;2.08;;;;;;;;;;6181469;28;20386;-70
2023/10/02 00:42:40;;;;;;;;;;;;;;;;;;6185449;28;20038;-69
2023/10/02 00:45:42;;;;;;;3.47;1.98;;;;;;;;;;6178794;28;20068;-70
2023/10/02 00:48:44;;;;;;;4.80;2.22;;;;;;;;;;6177488;28;20075;-70
2023/10/02 00:51:46;;;;;;;3.25;1.92;;;;;;;;;;6175922;28;20113;-70
2023/10/02 00:54:47;;;;;;;3.95;2.13;;;;;;;;;;6180354;28;20042;-74
2023/10/02 00:57:50;;;;;;;4.13;2.23;;;;;;;;;;6177500;28;20491;-74
2023/10/02 01:00:53;;;;;;;3.03;1.95;;;;;;;;;;6177266;28;20031;-74
2023/10/02 01:04:23;;;;;;;4.60;2.30;;;;;;;;;;6177825;28;20441;-74
2023/10/02 01:07:24;;;;;;;3.28;1.85;;;;;;;;;;6174591;28;20395;-74
2023/10/02 01:10:30;;;;;;;4.88;2.63;;;;;;;;;;6179469;28;20062;-74
2023/10/02 01:13:35;;;;;;;3.40;1.98;;;;;;;;;;6181799;28;20379;-74
2023/10/02 01:16:36;;;;;;;4.47;2.08;;;;;;;;;;6176751;28;20033;-74
2023/10/02 01:19:57;;;;;;;5.03;2.35;;;;;;;;;;6184802;28;20055;-75
2023/10/02 01:23:11;;;;;;;4.28;2.20;;;;;;;;;;6173596;28;20077;-74
2023/10/02 01:26:15;;;;;;;3.38;2.20;;;;;;;;;;6177189;28;20045;-75
2023/10/02 01:29:15;;;;;;;3.42;2.20;;;;;;;;;;6177089;28;20047;-74
2023/10/02 01:32:17;;;;;;;3.70;2.10;;;;;;;;;;6177959;28;20073;-74
2023/10/02 01:35:19;;;;;;;6.25;2.35;;;;;;;;;;6182742;28;20416;-74
2023/10/02 01:38:19;;;;;;;4.60;2.22;;;;;;;;;;6175630;28;20175;-74
2023/10/02 01:41:20;;;;;;;3.88;2.08;;;;;;;;;;6177993;28;20101;-77
2023/10/02 01:44:22;;;;;;;;;;;;;;;;;;6194127;28;20038;-81
2023/10/02 01:47:24;;;;;;;4.05;2.00;;;;;;;;;;6176603;28;19914;-81
2023/10/02 01:50:24;;;;;;;3.75;1.92;;;;;;;;;;6176995;28;20038;-81
2023/10/02 01:53:29;;;;;;;5.85;2.25;;;;;;;;;;6176733;28;20109;-81
2023/10/02 01:56:30;;;;;;;4.78;2.28;;;;;;;;;;6161220;28;20155;-82
2023/10/02 01:59:31;;;;;;;5.55;2.28;;;;;;;;;;6177338;28;20026;-82
2023/10/02 02:02:34;;;;;;;3.90;2.22;;;;;;;;;;6181551;28;20080;-81
2023/10/02 02:05:34;;;;;;;3.35;2.05;;;;;;;;;;6181072;28;20487;-77
2023/10/02 02:08:36;;;;;;;5.23;2.40;;;;;;;;;;6175848;28;20031;-77
2023/10/02 02:11:36;;;;;;;3.90;2.10;;;;;;;;;;6174367;28;20084;-77
2023/10/02 02:15:11;;;;;;;4.80;2.27;;;;;;;;;;6177331;28;20037;-77
2023/10/02 02:18:04;;;;;;;4.40;2.00;;;;;;;;;;6181431;28;20573;-77
2023/10/02 02:21:04;;;;;;;4.30;2.22;;;;;;;;;;6169702;28;20077;-77
2023/10/02 02:24:08;;;;;;;5.03;2.43;;;;;;;;;;6176958;28;20034;-77
2023/10/02 02:27:08;;;;;;;3.05;1.80;;;;;;;;;;6174301;28;20015;-77
2023/10/02 02:30:10;;;;;;;3.70;1.87;;;;;;;;;;6182945;28;20463;-78
2023/10/02 02:33:12;;;;;;;4.45;2.38;;;;;;;;;;6176996;28;20033;-77
2023/10/02 02:36:13;;;;;;;3.97;2.03;;;;;;;;;;6162924;28;20027;-77
2023/10/02 02:39:16;;;;;;;4.40;2.50;;;;;;;;;;6176356;28;20081;-76
2023/10/02 02:45:36;;;;;;;4.43;2.50;;;;;;;;;;6178011;28;20042;-77
2023/10/02 02:48:44;;;;;;;3.85;2.47;;;;;;;;;;6176980;28;20056;-77
2023/10/02 02:51:48;;;;;;;4.00;2.17;;;;;;;;;;6178297;28;20027;-77
2023/10/02 02:54:49;;;;;;;3.80;2.25;;;;;;;;;;6178927;28;20052;-77
2023/10/02 02:57:50;;;;;;;2.72;2.10;;;;;;;;;;6176258;28;20029;-77
2023/10/02 03:00:52;;;;;;;5.00;2.17;;;;;;;;;;6176653;28;20035;-76
2023/10/02 03:03:55;;;;;;;3.25;2.08;;;;;;;;;;6163726;28;20046;-77
2023/10/02 03:07:08;;;;;;;5.22;2.25;;;;;;;;;;6174188;28;20547;-77
2023/10/02 03:10:11;;;;;;;3.72;2.10;;;;;;;;;;6177571;28;20033;-78
2023/10/02 03:13:17;;;;;;;5.00;2.13;;;;;;;;;;6175845;28;20102;-81
2023/10/02 03:16:28;;;;;;;6.82;2.17;;;;;;;;;;6172230;28;20034;-81
2023/10/02 03:19:28;;;;;;;3.88;2.20;;;;;;;;;;6163118;28;20026;-82
2023/10/02 03:22:33;;;;;;;5.13;1.93;;;;;;;;;;6173729;28;20070;-81
2023/10/02 03:25:45;;;;;;;4.30;2.28;;;;;;;;;;6175750;28;20026;-81
2023/10/02 03:28:47;;;;;;;5.32;2.20;;;;;;;;;;6176976;28;20022;-82
2023/10/02 03:31:51;;;;;;;3.05;1.80;;;;;;;;;;6174186;28;20062;-81
2023/10/02 03:35:02;;;;;;;3.17;1.83;;;;;;;;;;6182184;28;20030;-81
2023/10/02 03:38:02;;;;;;;3.92;2.17;;;;;;;;;;6185307;28;20026;-81
2023/10/02 03:41:05;;;;;;;4.03;2.30;;;;;;;;;;6180500;28;20120;-81
2023/10/02 03:44:06;;;;;;;3.35;1.88;;;;;;;;;;6185272;28;20475;-82
2023/10/02 03:47:06;;;;;;;5.00;1.92;;;;;;;;;;6180125;28;20030;-82
2023/10/02 03:50:12;;;;;;;3.45;2.13;;;;;;;;;;6175891;28;20034;-82
2023/10/02 03:53:12;;;;;;;3.88;1.70;;;;;;;;;;6166693;28;20040;-81
2023/10/02 03:56:36;;;;;;;3.22;1.98;;;;;;;;;;6179663;28;20507;-81
2023/10/02 03:59:52;;;;;;;3.65;2.22;;;;;;;;;;6180033;28;20124;-81
2023/10/02 04:02:53;;;;;;;4.38;2.22;;;;;;;;;;6179167;28;20459;-82
2023/10/02 04:05:55;;;;;;;3.22;1.92;;;;;;;;;;6179450;28;20026;-81
2023/10/02 04:09:06;;;;;;;3.03;1.90;;;;;;;;;;6182732;28;20034;-81
2023/10/02 04:12:07;;;;;;;3.38;2.00;;;;;;;;;;6168114;28;20376;-81
2023/10/02 04:15:11;;;;;;;3.15;1.65;;;;;;;;;;6179950;28;20054;-81
2023/10/02 04:18:45;;;;;;;4.20;2.33;;;;;;;;;;6179331;28;20039;-81
2023/10/02 04:21:33;;;;;;;3.00;1.98;;;;;;;;;;6179818;28;20393;-81
2023/10/02 04:24:51;;;;;;;4.15;2.30;;;;;;;;;;6166550;28;20039;-81
2023/10/02 04:31:03;;;;;;;3.07;1.63;;;;;;;;;;6180185;28;20034;-83
2023/10/02 04:34:29;;;;;;;4.13;2.13;;;;;;;;;;6162679;28;20117;-82
2023/10/02 04:37:32;;;;;;;3.55;1.98;;;;;;;;;;6176167;28;20530;-83
2023/10/02 04:40:44;;;;;;;3.80;2.22;;;;;;;;;;6173061;28;20041;-83
2023/10/02 04:43:45;;;;;;;3.15;1.95;;;;;;;;;;6176569;28;20035;-81
2023/10/02 04:46:46;;;;;;;2.78;1.92;;;;;;;;;;6179857;28;20019;-82
2023/10/02 04:59:17;;;;;;;3.27;2.13;;;;;;;;;;6178789;28;20035;-82
2023/10/02 05:02:21;;;;;;;3.23;2.03;;;;;;;;;;6194679;28;20041;-83
2023/10/02 05:05:23;;;;;;;4.30;2.28;;;;;;;;;;6194576;28;20026;-82
2023/10/02 05:08:34;;;;;;;3.72;2.50;;;;;;;;;;6195904;28;20018;-82
2023/10/02 05:11:55;;;;;;;4.80;2.78;;;;;;;;;;6206652;28;20471;-82
2023/10/02 05:14:57;;;;;;;3.80;2.05;;;;;;;;;;6174802;28;20471;-81
2023/10/02 05:18:03;;;;;;;3.13;2.15;;;;;;;;;;6183025;28;20026;-82
2023/10/02 05:21:04;;;;;;;4.28;2.05;;;;;;;;;;6177837;28;20089;-82
2023/10/02 05:24:13;;;;;;;2.93;1.80;;;;;;;;;;6175004;28;20064;-83
2023/10/02 05:27:27;;;;;;;6.65;2.22;;;;;;;;;;6177814;28;20038;-88
2023/10/02 05:30:28;;;;;;;3.75;2.20;;;;;;;;;;6175306;28;20107;-87
2023/10/02 05:33:37;;;;;;;3.20;1.98;;;;;;;;;;6188218;28;20035;-85
2023/10/02 05:36:54;;;;;;;4.60;2.00;;;;;;;;;;6178772;28;20038;-87
2023/10/02 05:40:14;;;;;;;3.97;2.28;;;;;;;;;;6174431;28;20029;-87
2023/10/02 05:43:17;;;;;;;4.95;2.30;;;;;;;;;;6178612;28;20514;-86
2023/10/02 05:46:18;;;;;;;4.97;2.45;;;;;;;;;;6181380;28;20054;-76
2023/10/02 05:49:23;;;;;;;3.53;1.90;;;;;;;;;;6229313;28;20037;-76
2023/10/02 05:52:23;;;;;;;3.63;2.20;;;;;;;;;;6222120;28;20044;-77
2023/10/02 05:55:25;;;;;;;4.03;2.25;;;;;;;;;;6173864;28;20030;-76
2023/10/02 05:58:31;;;;;;;4.05;2.20;;;;;;;;;;6177473;28;20034;-77
2023/10/02 06:01:34;;;;;;;3.13;2.03;;;;;;;;;;6182628;28;20444;-78
2023/10/02 06:04:34;;;;;;;3.47;2.13;;;;;;;;;;6175224;28;20463;-78
2023/10/02 06:07:43;;;;;;;4.37;2.30;;;;;;;;;;6177577;28;20038;-78
2023/10/02 06:10:44;;;;;;;5.25;2.25;;;;;;;;;;6177705;28;20494;-79
2023/10/02 06:13:44;;;;;;;5.72;2.58;;;;;;;;;;6175514;28;20027;-78
2023/10/02 06:16:48;;;;;;;4.43;2.43;;;;;;;;;;6177562;28;20453;-79
2023/10/02 06:19:48;;;;;;;5.07;2.75;;;;;;;;;;6174528;28;20050;-78
2023/10/02 06:22:50;;;;;;;3.50;2.17;;;;;;;;;;6172737;28;20042;-78
2023/10/02 06:25:52;;;;;;;3.97;2.15;;;;;;;;;;6174244;28;20046;-81
2023/10/02 06:29:13;;;;;;;4.43;2.15;;;;;;;;;;6175604;28;20033;-78
2023/10/02 06:32:19;;;;;;;4.60;2.83;;;;;;;;;;6189479;28;20050;-78
2023/10/02 06:35:22;;;;;;;7.72;3.47;;;;;;;;;;6177075;28;20140;-79
2023/10/02 06:38:29;;;;;;;6.07;3.20;;;;;;;;;;6171806;28;20088;-78
2023/10/02 06:41:29;;;;;;;5.45;3.13;;;;;;;;;;6190474;28;20029;-78
2023/10/02 06:44:52;;;;;;;5.10;2.77;;;;;;;;;;6166297;28;20132;-79
2023/10/02 06:47:54;;;;;;;4.35;2.47;;;;;;;;;;6192203;28;20056;-81
2023/10/02 06:50:55;;;;;;;4.60;2.47;;;;;;;;;;6194673;28;20043;-79
2023/10/02 06:54:07;;;;;;;4.82;2.47;;;;;;;;;;6193252;28;20018;-79
2023/10/02 06:57:11;;;;;;;4.15;2.33;;;;;;;;;;6192853;28;20038;-79
2023/10/02 07:00:19;;;;;;;5.93;2.45;;;;;;;;;;6175777;28;20030;-79
2023/10/02 07:03:19;;;;;;;6.53;2.67;;;;;;;;;;6168386;28;20038;-78
2023/10/02 07:06:20;;;;;;;3.93;2.57;;;;;;;;;;6186078;28;20109;-80
2023/10/02 07:09:24;;;;;;;5.22;2.55;;;;;;;;;;6187162;28;20026;-78
2023/10/02 07:12:27;;;;;;;4.13;2.58;;;;;;;;;;6182380;28;20034;-78
2023/10/02 07:15:28;;;;;;;4.97;2.67;;;;;;;;;;6182470;28;20023;-81
2023/10/02 07:18:37;;;;;;;4.73;2.73;;;;;;;;;;6189184;28;20482;-79
2023/10/02 07:21:40;;;;;;;4.45;2.22;;;;;;;;;;6194110;28;20042;-80
2023/10/02 07:24:40;;;;;;;5.90;2.67;;;;;;;;;;6174895;28;20039;-79
2023/10/02 07:27:40;;;;;;;4.53;2.17;;;;;;;;;;6177265;28;20038;-80
2023/10/02 07:30:40;;;;;;;4.40;2.27;;;;;;;;;;6176239;28;20605;-80
2023/10/02 07:33:40;;;;;;;4.70;2.30;;;;;;;;;;6188760;28;20034;-80
2023/10/02 07:36:47;;;;;;;4.37;2.50;;;;;;;;;;6198287;28;20387;-80
2023/10/02 07:39:56;;;;;;;6.22;2.95;;;;;;;;;;6198029;28;20018;-80
2023/10/02 07:42:56;;;;;;;5.10;2.70;;;;;;;;;;6199287;28;20025;-80
2023/10/02 07:46:01;;;;;;;6.17;2.90;;;;;;;;;;6197430;28;20410;-81
2023/10/02 07:49:04;;;;;;;8.00;4.55;;;;;;;;;;6197023;28;20030;-79
2023/10/02 07:52:06;;;;;;;5.70;3.50;;;;;;;;;;6197891;28;20087;-80
2023/10/02 07:55:10;;;;;;;5.60;3.35;;;;;;;;;;6197814;28;20034;-82
2023/10/02 07:58:13;;;;;;;3.90;2.72;;;;;;;;;;6199162;28;20057;-82
2023/10/02 08:01:13;;;;;;;5.45;2.95;;;;;;;;;;6198912;28;20383;-82
2023/10/02 08:04:14;;;;;;;5.47;2.80;;;;;;;;;;6201105;28;20026;-82
2023/10/02 08:07:14;;;;;;;;;;;;;;;;;;6162929;28;20533;-82
2023/10/02 08:10:15;;;;;;;2.70;1.93;;;;;;;;;;6216442;28;20357;-81
2023/10/02 08:13:16;;;;;;;4.40;2.72;;;;;;;;;;6184599;28;20320;-82
2023/10/02 08:16:17;;;;;;;5.00;2.95;;;;;;;;;;6190772;28;20031;-82
2023/10/02 08:19:18;;;;;;;7.05;3.40;;;;;;;;;;6163757;28;20080;-82
2023/10/02 08:22:19;;;;;;;;;;;;;;;;;;6180446;28;20084;-82
2023/10/02 08:25:23;;;;;;;4.78;2.55;;;;;;;;;;6173773;28;19910;-82
2023/10/02 08:28:23;;;;;;;4.95;2.35;;;;;;;;;;6189560;28;20520;-82
2023/10/02 08:31:27;;;;;;;;;;;;;;;;;;6198059;28;20034;-82
2023/10/02 08:34:28;;;;;;;4.35;2.47;;;;;;;;;;6177915;28;19906;-82
2023/10/02 08:37:28;;;;;;;;;;;;;;;;;;6173690;28;20493;-82
2023/10/02 08:40:28;;;;;;;3.90;1.98;;;;;;;;;;6196224;28;19910;-83
2023/10/02 08:43:28;;;;;;;;;;;;;;;;;;6181419;28;20026;-83
2023/10/02 08:46:31;;;;;;;3.80;2.40;;;;;;;;;;6179560;28;19914;-81
2023/10/02 08:49:31;;;;;;;4.22;2.50;;;;;;;;;;6190268;28;20030;-81
2023/10/02 08:56:01;;;;;;;4.03;2.40;;;;;;;;;;6167531;28;20436;-78
2023/10/02 08:59:35;;;;;;;4.25;2.40;;;;;;;;;;6182679;28;20026;-78
2023/10/02 09:02:40;;;;;;;5.75;2.60;;;;;;;;;;6187187;28;20049;-80
2023/10/02 09:05:49;;;;;;;4.07;2.22;;;;;;;;;;6177503;28;20026;-79
2023/10/02 09:12:13;;;;;;;7.70;2.90;;;;;;;;;;6177207;28;20039;-80
2023/10/02 09:15:24;;;;;;;6.05;2.60;;;;;;;;;;6173471;28;20035;-79
2023/10/02 09:18:34;;;;;;;5.00;2.92;;;;;;;;;;6172984;28;20479;-79
2023/10/02 09:21:38;;;;;;;4.38;2.60;;;;;;;;;;6172496;28;20148;-78
2023/10/02 09:24:55;;;;;;;5.82;3.20;;;;;;;;;;6172925;28;20062;-78
2023/10/02 09:28:04;;;;;;;4.88;2.70;;;;;;;;;;6175777;28;20394;-80
2023/10/02 09:31:14;;;;;;;3.90;2.55;;;;;;;;;;6185111;28;20038;-81
2023/10/02 09:34:16;;;;;;;4.05;2.30;;;;;;;;;;6167470;28;20045;-70
2023/10/02 09:37:26;;;;;;;6.97;2.55;;;;;;;;;;6183619;28;20030;-69
2023/10/02 09:40:27;;;;;;;4.28;2.47;;;;;;;;;;6193317;28;20084;-70
2023/10/02 09:43:28;;;;;;;5.43;2.58;;;;;;;;;;6194869;28;20459;-70
2023/10/02 09:46:33;;;;;;;3.97;2.50;;;;;;;;;;6220626;28;20026;-70
2023/10/02 09:49:36;;;;;;;4.53;2.13;;;;;;;;;;6194801;28;20034;-70
2023/10/02 09:53:00;;;;;;;4.68;2.33;;;;;;;;;;6171385;28;20038;-69
2023/10/02 09:56:03;;;;;;;4.13;2.35;;;;;;;;;;6196746;28;20050;-70
2023/10/02 09:59:16;;;;;;;6.68;2.30;;;;;;;;;;6220295;28;20041;-70
2023/10/02 10:08:28;;;;;;;3.70;2.63;;;;;;;;;;6174964;28;20038;-70
2023/10/02 10:11:29;;;;;;;3.78;2.25;;;;;;;;;;6187060;28;20034;-71
2023/10/02 10:14:40;;;;;;;3.73;2.37;;;;;;;;;;6192611;28;20034;-71
2023/10/02 10:17:49;;;;;;;3.55;2.40;;;;;;;;;;6177342;28;20030;-72
2023/10/02 10:20:54;;;;;;;3.10;2.25;;;;;;;;;;6178953;28;20099;-71
2023/10/02 10:24:14;;;;;;;5.55;2.67;;;;;;;;;;6191525;28;20109;-72
2023/10/02 10:27:35;;;;;;;6.45;2.95;;;;;;;;;;6192127;28;20566;-71
2023/10/02 10:30:39;;;;;;;3.75;2.15;;;;;;;;;;6194267;28;20030;-71
2023/10/02 10:33:40;;;;;;;3.88;2.42;;;;;;;;;;6193497;28;20030;-71
2023/10/02 10:36:41;;;;;;;3.20;2.08;;;;;;;;;;6177733;28;20033;-70
2023/10/02 10:39:54;;;;;;;3.38;2.30;;;;;;;;;;6172241;28;20056;-70
2023/10/02 10:42:59;;;;;;;3.80;2.33;;;;;;;;;;6171922;28;20043;-70
2023/10/02 10:46:12;;;;;;;2.92;2.15;;;;;;;;;;6174124;28;20121;-70
2023/10/02 10:49:16;;;;;;;4.30;2.50;;;;;;;;;;6176233;28;20534;-70
2023/10/02 10:52:30;;;;;;;3.75;2.42;;;;;;;;;;6180175;28;20137;-70
2023/10/02 10:55:33;;;;;;;4.10;2.55;;;;;;;;;;6174299;28;20031;-71
2023/10/02 10:58:34;;;;;;;4.32;2.42;;;;;;;;;;6173970;28;20026;-70
2023/10/02 11:01:34;;;;;;;5.20;2.40;;;;;;;;;;6172142;28;20041;-71
2023/10/02 11:04:39;;;;;;;4.00;2.40;;;;;;;;;;6175696;28;20289;-70
2023/10/02 11:07:46;;;;;;;3.42;1.98;;;;;;;;;;6194027;28;20390;-70
2023/10/02 11:10:46;;;;;;;4.45;2.25;;;;;;;;;;6174087;28;20030;-70
2023/10/02 11:13:50;;;;;;;4.17;2.53;;;;;;;;;;6181585;28;20460;-71
2023/10/02 11:16:52;;;;;;;3.42;2.17;;;;;;;;;;6178303;28;20186;-68
2023/10/02 11:19:55;;;;;;;4.10;2.10;;;;;;;;;;6167717;28;20055;-69
2023/10/02 11:23:03;;;;;;;3.30;2.28;;;;;;;;;;6178221;28;20038;-68
2023/10/02 11:26:11;;;;;;;4.00;2.40;;;;;;;;;;6182710;28;20104;-69
2023/10/02 11:29:23;;;;;;;4.88;2.40;;;;;;;;;;6170349;28;20030;-69
2023/10/02 11:32:23;;;;;;;3.58;2.35;;;;;;;;;;6173790;28;20030;-69
2023/10/02 11:35:31;;;;;;;3.60;2.30;;;;;;;;;;6193449;28;20037;-69
2023/10/02 11:38:33;;;;;;;3.90;2.20;;;;;;;;;;6190680;28;20027;-69
2023/10/02 11:41:34;;;;;;;4.90;2.20;;;;;;;;;;6194494;28;20026;-68
2023/10/02 11:44:34;;;;;;;4.28;2.38;;;;;;;;;;6177826;28;20493;-68
2023/10/02 11:47:34;;;;;;;4.28;1.98;;;;;;;;;;6183560;28;20031;-68
2023/10/02 11:50:35;;;;;;;2.95;1.90;;;;;;;;;;6172532;28;20019;-68
2023/10/02 11:53:36;;;;;;;2.97;2.22;;;;;;;;;;6174825;28;20401;-68
2023/10/02 11:56:38;;;;;;;2.88;2.17;;;;;;;;;;5838788;28;10000160;-69
2023/10/02 11:59:41;;;;;;;2.65;1.80;;;;;;;;;;6194141;28;20026;-70
2023/10/02 12:02:45;;;;;;;3.55;2.33;;;;;;;;;;6207449;28;20519;-70
2023/10/02 12:05:45;;;;;;;3.83;2.45;;;;;;;;;;6206090;28;20026;-68
2023/10/02 12:08:46;;;;;;;2.88;2.13;;;;;;;;;;6192750;28;20034;-73
2023/10/02 12:11:46;;;;;;;3.05;2.20;;;;;;;;;;6194072;28;20083;-69
2023/10/02 12:14:47;;;;;;;3.23;2.13;;;;;;;;;;6187160;28;20060;-70
2023/10/02 12:17:47;;;;;;;4.30;1.80;;;;;;;;;;6171248;28;20038;-70
2023/10/02 12:20:49;;;;;;;4.35;2.42;;;;;;;;;;6168927;28;20302;-70
2023/10/02 12:23:49;;;;;;;3.15;2.08;;;;;;;;;;6175513;28;20376;-70
2023/10/02 12:26:49;;;;;;;3.40;2.40;;;;;;;;;;6194523;28;20031;-69
2023/10/02 12:29:50;;;;;;;4.87;2.10;;;;;;;;;;6192889;28;20048;-70
2023/10/02 12:32:52;;;;;;;4.97;2.10;;;;;;;;;;6182305;28;20066;-69
2023/10/02 12:35:54;;;;;;;4.07;2.20;;;;;;;;;;5491881;28;10000810;-69
2023/10/02 12:38:54;;;;;;;3.13;1.98;;;;;;;;;;6195100;28;20014;-69
2023/10/02 12:41:55;;;;;;;4.07;2.13;;;;;;;;;;6180565;28;20502;-68
2023/10/02 12:44:56;;;;;;;3.67;2.60;;;;;;;;;;6180251;28;20034;-68
2023/10/02 12:47:56;;;;;;;3.33;2.10;;;;;;;;;;6194375;28;20033;-72
2023/10/02 12:50:57;;;;;;;4.10;2.20;;;;;;;;;;6179494;28;20038;-73
2023/10/02 12:53:57;;;;;;;4.95;2.20;;;;;;;;;;6177704;28;20277;-71
2023/10/02 12:56:57;;;;;;;4.17;2.40;;;;;;;;;;6184737;28;20096;-70
2023/10/02 12:59:58;;;;;;;4.40;2.50;;;;;;;;;;6189744;28;20053;-70
2023/10/02 13:02:58;;;;;;;3.83;2.43;;;;;;;;;;6192588;28;20121;-72
2023/10/02 13:05:59;;;;;;;3.47;2.45;;;;;;;;;;6191668;28;20026;-70
2023/10/02 13:09:10;;;;;;;4.45;2.60;;;;;;;;;;6182413;28;20041;-71
2023/10/02 13:12:11;;;;;;;3.75;2.33;;;;;;;;;;6189359;28;20026;-69
2023/10/02 13:15:15;;;;;;;3.60;2.50;;;;;;;;;;6190714;28;20030;-73
2023/10/02 13:18:15;;;;;;;5.18;2.20;;;;;;;;;;6185439;28;20598;-73
2023/10/02 13:21:18;;;;;;;4.43;2.20;;;;;;;;;;6167550;28;20062;-69
2023/10/02 13:24:23;;;;;;;2.97;1.92;;;;;;;;;;6176339;28;20462;-69
2023/10/02 13:27:23;;;;;;;4.53;2.53;;;;;;;;;;6145094;28;20396;-71
2023/10/02 13:30:26;;;;;;;4.47;2.13;;;;;;;;;;6161905;28;20034;-70
2023/10/02 13:33:26;;;;;;;4.70;2.42;;;;;;;;;;6167788;28;20031;-71
2023/10/02 13:36:27;;;;;;;3.80;2.27;;;;;;;;;;6164327;28;20100;-70
2023/10/02 13:39:27;;;;;;;3.40;2.40;;;;;;;;;;6171969;28;20262;-73
2023/10/02 13:42:27;;;;;;;3.70;2.33;;;;;;;;;;6172729;28;20031;-70
2023/10/02 13:45:27;;;;;;;3.30;2.43;;;;;;;;;;6170154;28;20463;-73
2023/10/02 13:48:27;;;;;;;3.80;2.30;;;;;;;;;;6171379;28;20023;-71
2023/10/02 13:51:28;;;;;;;4.00;2.17;;;;;;;;;;6169073;28;20027;-72
2023/10/02 13:54:28;;;;;;;4.83;2.70;;;;;;;;;;6165429;28;20027;-71
2023/10/02 13:57:29;;;;;;;3.70;2.22;;;;;;;;;;6156170;28;20057;-72
2023/10/02 14:00:35;;;;;;;5.10;2.72;;;;;;;;;;6153076;28;20034;-71
2023/10/02 14:03:36;;;;;;;3.63;1.92;;;;;;;;;;6191063;28;20072;-72
2023/10/02 14:06:36;;;;;;;3.92;2.55;;;;;;;;;;6195124;28;20039;-72
2023/10/02 14:09:37;;;;;;;3.87;2.13;;;;;;;;;;6178914;28;20467;-71
2023/10/02 14:12:44;;;;;;;6.07;2.85;;;;;;;;;;6170854;28;20031;-72
2023/10/02 14:15:46;;;;;;;5.35;2.33;;;;;;;;;;6170739;28;20026;-72
2023/10/02 14:18:51;;;;;;;3.90;2.50;;;;;;;;;;6169778;28;20065;-71
2023/10/02 14:21:52;;;;;;;5.72;2.83;;;;;;;;;;6167917;28;20062;-72
2023/10/02 14:24:52;;;;;;;3.00;2.13;;;;;;;;;;6168401;28;20031;-72
2023/10/02 14:27:52;;;;;;;3.70;2.40;;;;;;;;;;6183184;28;20486;-72
2023/10/02 14:30:53;;;;;;;3.50;2.47;;;;;;;;;;6190865;28;20274;-72
2023/10/02 14:33:53;;;;;;;4.30;2.50;;;;;;;;;;6191649;28;20620;-72
2023/10/02 14:36:54;;;;;;;3.50;2.47;;;;;;;;;;6177070;28;20237;-72
2023/10/02 14:39:54;;;;;;;2.78;2.13;;;;;;;;;;6179675;28;20099;-72
2023/10/02 14:43:00;;;;;;;4.45;2.28;;;;;;;;;;6192750;28;20030;-72
2023/10/02 14:46:00;;;;;;;3.38;2.45;;;;;;;;;;6189092;28;20478;-70
2023/10/02 14:49:00;;;;;;;2.97;2.17;;;;;;;;;;6188219;28;20062;-71
2023/10/02 14:52:01;;;;;;;3.60;2.50;;;;;;;;;;6191119;28;20762;-70
2023/10/02 14:55:01;;;;;;;3.53;2.30;;;;;;;;;;6195173;28;20034;-68
2023/10/02 14:58:01;;;;;;;3.87;2.40;;;;;;;;;;6195361;28;20109;-68
2023/10/02 15:01:11;;;;;;;3.80;2.50;;;;;;;;;;6186006;28;20278;-68
2023/10/02 15:04:12;;;;;;;3.88;2.60;;;;;;;;;;6193421;28;20062;-70
2023/10/02 15:07:12;;;;;;;3.50;2.53;;;;;;;;;;6192217;28;20041;-70
2023/10/02 15:10:16;;;;;;;3.63;2.83;;;;;;;;;;6170626;28;20029;-69
2023/10/02 15:13:17;;;;;;;3.70;2.50;;;;;;;;;;6162324;28;20118;-72
2023/10/02 15:16:17;;;;;;;4.50;2.75;;;;;;;;;;6182523;28;20037;-68
2023/10/02 15:19:18;;;;;;;4.63;2.83;;;;;;;;;;6193569;28;20456;-68
2023/10/02 15:22:18;;;;;;;4.50;2.37;;;;;;;;;;6194215;28;20117;-68
2023/10/02 15:25:18;;;;;;;3.57;2.23;;;;;;;;;;6191351;28;20099;-68
2023/10/02 15:28:21;;;;;;;3.75;2.58;;;;;;;;;;6183586;28;20099;-70
2023/10/02 15:31:22;;;;;;;4.30;2.90;;;;;;;;;;5838548;28;9999855;-68
2023/10/02 15:34:23;;;;;;;3.95;2.92;;;;;;;;;;6189276;28;20095;-69
2023/10/02 15:37:24;;;;;;;4.63;2.57;;;;;;;;;;6173861;28;20030;-68
2023/10/02 15:40:24;;;;;;;4.32;3.03;;;;;;;;;;6184550;28;20029;-68
2023/10/02 15:43:25;;;;;;;4.28;2.88;;;;;;;;;;6184599;28;20178;-68
2023/10/02 15:46:25;;;;;;;4.22;3.05;;;;;;;;;;6198877;28;20091;-68
2023/10/02 15:49:26;;;;;;;4.65;2.60;;;;;;;;;;6188939;28;20030;-68
2023/10/02 15:52:29;;;;;;;4.33;2.60;;;;;;;;;;6162818;28;20030;-67
2023/10/02 15:55:29;;;;;;;4.43;2.70;;;;;;;;;;6169347;28;20641;-68
2023/10/02 15:58:29;;;;;;;4.43;2.83;;;;;;;;;;6194611;28;20027;-68
2023/10/02 16:01:29;;;;;;;6.77;3.70;;;;;;;;;;6187191;28;20030;-67
2023/10/02 16:04:30;;;;;;;4.50;2.73;;;;;;;;;;6214118;28;20453;-68
2023/10/02 16:07:30;;;;;;;3.90;2.73;;;;;;;;;;6189214;28;20038;-67
2023/10/02 16:10:30;;;;;;;5.93;2.73;;;;;;;;;;6185744;28;20037;-68
2023/10/02 16:13:30;;;;;;;4.57;2.80;;;;;;;;;;6175018;28;20034;-68
2023/10/02 16:16:30;;;;;;;4.00;2.53;;;;;;;;;;6174822;28;20039;-68
2023/10/02 16:19:34;;;;;;;4.30;2.90;;;;;;;;;;6195901;28;20105;-68
2023/10/02 16:22:36;;;;;;;4.38;2.88;;;;;;;;;;6195461;28;20349;-68
2023/10/02 16:25:36;;;;;;;4.75;2.90;;;;;;;;;;6196743;28;20030;-68
2023/10/02 16:28:36;;;;;;;5.20;2.67;;;;;;;;;;6197699;28;20771;-69
2023/10/02 16:31:42;;;;;;;5.90;2.70;;;;;;;;;;6197891;28;20262;-68
2023/10/02 16:34:42;;;;;;;5.82;2.92;;;;;;;;;;6179086;28;20293;-68
2023/10/02 16:37:42;;;;;;;4.33;3.00;;;;;;;;;;6196721;28;20038;-68
2023/10/02 16:40:43;;;;;;;6.47;3.00;;;;;;;;;;6196196;28;20030;-68
2023/10/02 16:43:44;;;;;;;5.40;3.40;;;;;;;;;;6196282;28;20089;-68
2023/10/02 16:46:45;;;;;;;5.60;3.42;;;;;;;;;;6197790;28;20038;-68
2023/10/02 16:49:47;;;;;;;5.22;3.17;;;;;;;;;;6172636;28;20054;-70
2023/10/02 16:52:48;;;;;;;4.25;3.08;;;;;;;;;;6172436;28;20497;-68
2023/10/02 16:55:53;;;;;;;5.68;2.78;;;;;;;;;;6172496;28;20018;-69
2023/10/02 16:58:53;;;;;;;4.90;3.03;;;;;;;;;;6172644;28;20034;-68
2023/10/02 17:01:54;;;;;;;4.63;3.08;;;;;;;;;;6188820;28;20021;-68
2023/10/02 17:04:58;;;;;;;5.90;2.90;;;;;;;;;;6218389;28;20359;-68
2023/10/02 17:07:59;;;;;;;4.85;3.00;;;;;;;;;;6196809;28;20080;-68
2023/10/02 17:11:00;;;;;;;4.47;2.90;;;;;;;;;;6196923;28;20467;-68
2023/10/02 17:14:00;;;;;;;4.45;2.88;;;;;;;;;;6196861;28;20029;-70
2023/10/02 17:17:00;;;;;;;6.70;3.13;;;;;;;;;;6196270;28;20022;-70
2023/10/02 17:20:01;;;;;;;4.53;3.03;;;;;;;;;;6193948;28;20050;-70
2023/10/02 17:23:01;;;;;;;5.10;3.25;;;;;;;;;;6172394;28;20423;-70
2023/10/02 17:26:08;;;;;;;4.57;3.10;;;;;;;;;;6172352;28;20035;-70
2023/10/02 17:29:08;;;;;;;4.78;3.10;;;;;;;;;;6172478;28;20310;-71
2023/10/02 17:32:08;;;;;;;5.30;3.67;;;;;;;;;;5855473;28;10000590;-71
2023/10/02 17:35:13;;;;;;;5.33;3.23;;;;;;;;;;6197010;28;20334;-71
2023/10/02 17:38:13;;;;;;;6.18;3.50;;;;;;;;;;6194484;28;20391;-70
2023/10/02 17:41:14;;;;;;;5.35;3.75;;;;;;;;;;6178945;28;20034;-70
2023/10/02 17:44:14;;;;;;;6.75;3.45;;;;;;;;;;6196669;28;20026;-70
2023/10/02 17:47:14;;;;;;;6.35;4.22;;;;;;;;;;6196619;28;20121;-71
2023/10/02 17:50:18;;;;;;;5.43;3.57;;;;;;;;;;6194285;28;20029;-70
2023/10/02 17:53:18;;;;;;;5.20;3.42;;;;;;;;;;6187887;28;20015;-70
2023/10/02 17:56:18;;;;;;;6.13;4.17;;;;;;;;;;6191735;28;20053;-70
2023/10/02 17:59:19;;;;;;;6.87;3.83;;;;;;;;;;6171898;28;20488;-70
2023/10/02 18:02:20;;;;;;;6.20;3.88;;;;;;;;;;6196923;28;20040;-70
2023/10/02 18:05:20;;;;;;;6.72;3.72;;;;;;;;;;6219643;28;20034;-70
2023/10/02 18:08:21;;;;;;;5.90;3.37;;;;;;;;;;6189613;28;20113;-70
2023/10/02 18:11:25;;;;;;;5.70;3.65;;;;;;;;;;6194354;28;20298;-70
2023/10/02 18:14:25;;;;;;;7.32;3.08;;;;;;;;;;6195832;28;20026;-70
2023/10/02 18:17:26;;;;;;;5.37;3.47;;;;;;;;;;6196171;28;20048;-70
2023/10/02 18:20:29;;;;;;;4.90;3.22;;;;;;;;;;6194647;28;20665;-70
2023/10/02 18:23:29;;;;;;;5.45;3.35;;;;;;;;;;6195348;28;20037;-67
2023/10/02 18:26:29;;;;;;;5.10;3.13;;;;;;;;;;6175978;28;20038;-69
2023/10/02 18:29:30;;;;;;;5.73;3.17;;;;;;;;;;6195580;28;20030;-68
2023/10/02 18:32:31;;;;;;;5.40;3.30;;;;;;;;;;6185552;28;20109;-67
2023/10/02 18:35:31;;;;;;;4.72;3.35;;;;;;;;;;6179663;28;20387;-67
2023/10/02 18:38:34;;;;;;;7.00;3.38;;;;;;;;;;6170531;28;20464;-68
2023/10/02 18:41:34;;;;;;;7.53;4.18;;;;;;;;;;6175530;28;20455;-68
2023/10/02 18:44:35;;;;;;;6.67;4.57;;;;;;;;;;6194869;28;20029;-68
2023/10/02 18:47:36;;;;;;;5.93;3.80;;;;;;;;;;6195666;28;20176;-67
2023/10/02 18:50:36;;;;;;;5.57;4.00;;;;;;;;;;6180407;28;20082;-67